HFN weather

Hornafjörður Airport
Höfn, Southern Region, Iceland

Public forecast

Using degrees Celsius for public forecast. Weather courtesy of forecast.io.

Current aviation weather report (METAR) for Hornafjörður Airport

Report is more than 6 hours old.

Retrieved 2019/10/18 19:00 UTC (18 hours ago):

BIHN 181900Z 03013KT CAVOK 02/M05 Q1020

Closest aviation forecast (TAF) to Hornafjörður Airport

Closest forecast is Egilsstaðir Airport, 62.9 nm (116.6 km) NNE. Retrieved 2019/10/19 15:09 UTC (0 seconds ago):

TAF BIEG 191304Z 1915/2015 19010KT CAVOK TX04/1915Z TNM04/2006Z BECMG 2012/2014 9999 SCT020 BKN030 OVC040